Time;durP1;ratioP1;P1;durP2;ratioP2;P2;SDS_P1;SDS_P2;PMS_P1;PMS_P2;Temp;Humidity;BMP_temperature;BMP_pressure;BME280_temperature;BME280_humidity;BME280_pressure;Samples;Min_cycle;Max_cycle;Signal;HPM_P1;HPM_P2
2022/10/26 00:00:43;;;;;;;;;;;14.70;99.90;;;;;;5017225;28;20105;-77
2022/10/26 00:03:09;;;;;;;;;;;14.70;99.90;;;;;;5033651;28;19932;-76
2022/10/26 00:05:34;;;;;;;;;;;14.70;99.90;;;;;;5033303;28;19913;-76
2022/10/26 00:08:00;;;;;;;;;;;14.70;99.90;;;;;;5041273;28;19951;-77
2022/10/26 00:10:26;;;;;;;;;;;14.70;99.90;;;;;;5053893;28;20014;-77
2022/10/26 00:12:51;;;;;;;;;;;14.70;99.90;;;;;;5052927;28;19975;-77
2022/10/26 00:15:18;;;;;;;;;;;14.70;99.90;;;;;;5053583;28;19908;-77
2022/10/26 00:17:44;;;;;;;;;;;14.70;99.90;;;;;;5035181;28;19908;-77
2022/10/26 00:20:10;;;;;;;;;;;14.70;99.90;;;;;;5052075;28;19909;-76
2022/10/26 00:22:36;;;;;;;;;;;14.70;99.90;;;;;;5052795;28;19909;-76
2022/10/26 00:25:01;;;;;;;;;;;14.70;99.90;;;;;;5052926;28;19982;-77
2022/10/26 00:27:27;;;;;;;;;;;14.70;99.90;;;;;;5053339;28;19999;-77
2022/10/26 00:29:52;;;;;;;;;;;14.70;99.90;;;;;;5052343;28;19916;-76
2022/10/26 00:32:18;;;;;;;;;;;14.70;99.90;;;;;;5053055;28;19916;-77
2022/10/26 00:34:43;;;;;;;;;;;14.70;99.90;;;;;;5052696;28;19909;-77
2022/10/26 00:37:09;;;;;;;;;;;14.70;99.90;;;;;;5053236;28;19908;-77
2022/10/26 00:39:35;;;;;;;;;;;14.70;99.90;;;;;;5053219;28;19916;-77
2022/10/26 00:42:00;;;;;;;;;;;14.70;99.90;;;;;;5052293;28;20252;-77
2022/10/26 00:44:44;;;;;;;;;;;14.70;99.90;;;;;;5052712;28;20346;-76
2022/10/26 00:47:12;;;;;;;;;;;14.70;99.90;;;;;;5052954;28;19924;-77
2022/10/26 00:49:38;;;;;;;;;;;14.70;99.90;;;;;;5052497;28;19916;-77
2022/10/26 00:52:05;;;;;;;;;;;14.80;99.90;;;;;;5052530;28;19912;-78
2022/10/26 00:54:30;;;;;;;;;;;14.80;99.90;;;;;;5032700;28;19920;-78
2022/10/26 00:56:56;;;;;;;;;;;14.70;99.90;;;;;;5014669;28;19913;-78
2022/10/26 00:59:22;;;;;;;;;;;14.70;99.90;;;;;;5033124;28;19913;-78
2022/10/26 01:01:48;;;;;;;;;;;14.70;99.90;;;;;;5032410;28;20430;-77
2022/10/26 01:04:14;;;;;;;;;;;14.80;99.90;;;;;;5032886;28;19996;-77
2022/10/26 01:06:41;;;;;;;;;;;14.70;99.90;;;;;;5031994;28;19967;-77
2022/10/26 01:09:08;;;;;;;;;;;14.70;99.90;;;;;;5014627;28;19917;-77
2022/10/26 01:11:33;;;;;;;;;;;14.70;99.90;;;;;;5032507;28;19909;-77
2022/10/26 01:14:00;;;;;;;;;;;14.80;99.90;;;;;;5032063;28;20534;-77
2022/10/26 01:16:32;;;;;;;;;;;14.70;99.90;;;;;;5032606;28;19980;-77
2022/10/26 01:19:01;;;;;;;;;;;14.70;99.90;;;;;;5032301;28;19913;-76
2022/10/26 01:21:36;;;;;;;;;;;14.70;99.90;;;;;;5032837;28;19913;-76
2022/10/26 01:24:20;;;;;;;;;;;14.70;99.90;;;;;;5031909;28;19919;-76
2022/10/26 01:27:03;;;;;;;;;;;14.60;99.90;;;;;;5032136;28;19919;-76
2022/10/26 01:29:41;;;;;;;;;;;14.60;99.90;;;;;;5032817;28;19959;-75
2022/10/26 01:32:16;;;;;;;;;;;14.60;99.90;;;;;;5032794;28;19925;-75
2022/10/26 01:35:00;;;;;;;;;;;14.50;99.90;;;;;;5032139;28;19921;-76
2022/10/26 01:37:27;;;;;;;;;;;14.50;99.90;;;;;;5032472;28;19909;-76
2022/10/26 01:39:55;;;;;;;;;;;14.40;99.90;;;;;;5031826;28;20413;-75
2022/10/26 01:42:22;;;;;;;;;;;14.30;99.90;;;;;;5032554;28;20249;-76
2022/10/26 01:44:52;;;;;;;;;;;14.20;99.90;;;;;;5031693;28;20406;-76
2022/10/26 01:47:19;;;;;;;;;;;14.10;99.90;;;;;;5032141;28;19917;-76
2022/10/26 01:49:52;;;;;;;;;;;14.10;99.90;;;;;;5014126;28;19963;-77
2022/10/26 01:52:18;;;;;;;;;;;13.90;99.90;;;;;;5032369;28;19996;-76
2022/10/26 01:54:44;;;;;;;;;;;13.90;99.90;;;;;;5031965;28;19975;-77
2022/10/26 01:57:11;;;;;;;;;;;13.80;99.90;;;;;;5032491;28;20363;-76
2022/10/26 01:59:40;;;;;;;;;;;13.80;99.90;;;;;;5032039;28;20377;-76
2022/10/26 02:02:25;;;;;;;;;;;13.70;99.90;;;;;;5031769;28;19932;-76
2022/10/26 02:05:00;;;;;;;;;;;13.70;99.90;;;;;;5032975;28;19909;-76
2022/10/26 02:07:44;;;;;;;;;;;13.70;99.90;;;;;;5036145;28;19919;-77
2022/10/26 02:10:25;;;;;;;;;;;13.70;99.90;;;;;;5035902;28;19910;-77
2022/10/26 02:12:59;;;;;;;;;;;13.60;99.90;;;;;;5034248;28;19909;-77
2022/10/26 02:15:37;;;;;;;;;;;13.60;99.90;;;;;;5035867;28;20010;-76
2022/10/26 02:18:02;;;;;;;;;;;13.60;99.90;;;;;;5035449;28;19924;-76
2022/10/26 02:20:37;;;;;;;;;;;13.60;99.90;;;;;;5035654;28;19909;-76
2022/10/26 02:23:05;;;;;;;;;;;13.60;99.90;;;;;;5035505;28;20433;-76
2022/10/26 02:25:32;;;;;;;;;;;13.60;99.90;;;;;;5035326;28;19976;-77
2022/10/26 02:28:04;;;;;;;;;;;13.60;99.90;;;;;;5035053;28;20287;-75
2022/10/26 02:30:32;;;;;;;;;;;13.60;99.90;;;;;;5035480;28;19921;-76
2022/10/26 02:32:58;;;;;;;;;;;13.60;99.90;;;;;;5001129;28;20267;-76
2022/10/26 02:35:29;;;;;;;;;;;13.60;99.90;;;;;;5017820;28;20016;-76
2022/10/26 02:37:55;;;;;;;;;;;13.60;99.90;;;;;;5017306;28;19940;-77
2022/10/26 02:40:24;;;;;;;;;;;13.60;99.90;;;;;;5035541;28;19909;-76
2022/10/26 02:42:51;;;;;;;;;;;13.60;99.90;;;;;;5034828;28;20011;-76
2022/10/26 02:45:18;;;;;;;;;;;13.70;99.90;;;;;;5035188;28;19913;-76
2022/10/26 02:47:44;;;;;;;;;;;13.70;99.90;;;;;;5035079;28;19913;-76
2022/10/26 02:50:10;;;;;;;;;;;13.80;99.90;;;;;;5034510;28;19916;-77
2022/10/26 02:52:49;;;;;;;;;;;13.80;99.90;;;;;;5035296;28;19962;-76
2022/10/26 02:55:24;;;;;;;;;;;13.90;99.90;;;;;;5035214;28;20297;-77
2022/10/26 02:57:53;;;;;;;;;;;14.00;99.90;;;;;;5034342;28;19909;-76
2022/10/26 03:00:19;;;;;;;;;;;14.00;99.90;;;;;;5035110;28;19909;-80
2022/10/26 03:02:50;;;;;;;;;;;14.00;99.90;;;;;;5017487;28;19916;-86
2022/10/26 03:05:20;;;;;;;;;;;14.00;99.90;;;;;;5035193;28;20354;-87
2022/10/26 03:07:46;;;;;;;;;;;14.00;99.90;;;;;;5035230;28;19921;-87
2022/10/26 03:10:11;;;;;;;;;;;14.10;99.90;;;;;;5017125;28;19988;-83
2022/10/26 03:12:37;;;;;;;;;;;14.00;99.90;;;;;;5034884;28;20362;-83
2022/10/26 03:15:03;;;;;;;;;;;14.00;99.90;;;;;;5045921;28;19968;-80
2022/10/26 03:17:28;;;;;;;;;;;14.00;99.90;;;;;;5048664;28;19925;-79
2022/10/26 03:19:55;;;;;;;;;;;14.00;99.90;;;;;;5036736;28;19991;-79
2022/10/26 03:22:21;;;;;;;;;;;14.00;99.90;;;;;;5036375;28;19971;-85
2022/10/26 03:24:46;;;;;;;;;;;14.00;99.90;;;;;;5035550;28;19917;-88
2022/10/26 03:27:12;;;;;;;;;;;14.00;99.90;;;;;;5017480;28;19925;-89
2022/10/26 03:29:38;;;;;;;;;;;14.00;99.90;;;;;;5035700;28;19919;-90
2022/10/26 03:32:03;;;;;;;;;;;14.00;99.90;;;;;;5016287;28;19928;-84
2022/10/26 03:34:29;;;;;;;;;;;14.00;99.90;;;;;;5034309;28;20355;-83
2022/10/26 03:36:55;;;;;;;;;;;14.00;99.90;;;;;;5033763;28;19909;-80
2022/10/26 03:39:20;;;;;;;;;;;14.00;99.90;;;;;;5034407;28;19915;-79
2022/10/26 03:41:46;;;;;;;;;;;14.00;99.90;;;;;;5034366;28;20413;-83
2022/10/26 03:44:12;;;;;;;;;;;14.00;99.90;;;;;;5033342;28;19913;-84
2022/10/26 03:46:38;;;;;;;;;;;14.00;99.90;;;;;;5033724;28;19917;-80
2022/10/26 03:49:03;;;;;;;;;;;14.00;99.90;;;;;;5033423;28;19917;-79
2022/10/26 03:51:29;;;;;;;;;;;14.00;99.90;;;;;;5034470;28;19915;-78
2022/10/26 03:53:55;;;;;;;;;;;13.90;99.90;;;;;;5033593;28;19909;-78
2022/10/26 03:56:20;;;;;;;;;;;14.00;99.90;;;;;;5034380;28;20347;-78
2022/10/26 03:58:46;;;;;;;;;;;14.10;99.90;;;;;;5016328;28;19909;-78
2022/10/26 04:01:11;;;;;;;;;;;14.10;99.90;;;;;;5033734;28;19963;-78
2022/10/26 04:03:37;;;;;;;;;;;14.10;99.90;;;;;;5033947;28;19932;-78
2022/10/26 04:06:03;;;;;;;;;;;14.20;99.90;;;;;;5033038;28;19917;-78
2022/10/26 04:08:28;;;;;;;;;;;14.20;99.90;;;;;;5034518;28;19913;-78
2022/10/26 04:10:54;;;;;;;;;;;14.20;99.90;;;;;;5041010;28;19916;-76
2022/10/26 04:13:19;;;;;;;;;;;14.20;99.90;;;;;;5035179;28;19909;-79
2022/10/26 04:15:45;;;;;;;;;;;14.20;99.90;;;;;;5033511;28;19913;-82
2022/10/26 04:18:11;;;;;;;;;;;14.20;99.90;;;;;;5033308;28;19940;-87
2022/10/26 04:20:38;;;;;;;;;;;14.20;99.90;;;;;;5015880;28;19915;-89
2022/10/26 04:23:04;;;;;;;;;;;14.20;99.90;;;;;;5015333;28;20351;-89
2022/10/26 04:25:31;;;;;;;;;;;14.10;99.90;;;;;;5015810;28;20244;-91
2022/10/26 04:27:56;;;;;;;;;;;14.10;99.90;;;;;;5013947;28;19913;-88
2022/10/26 04:30:22;;;;;;;;;;;14.00;99.90;;;;;;5033377;28;19921;-87
2022/10/26 04:32:48;;;;;;;;;;;14.00;99.90;;;;;;5033334;28;19916;-86
2022/10/26 04:35:14;;;;;;;;;;;13.90;99.90;;;;;;5033038;28;19913;-84
2022/10/26 04:37:39;;;;;;;;;;;13.80;99.90;;;;;;5033080;28;19909;-79
2022/10/26 04:40:05;;;;;;;;;;;13.70;99.90;;;;;;5032762;28;19932;-77
2022/10/26 04:42:32;;;;;;;;;;;13.70;99.90;;;;;;5032970;28;19953;-78
2022/10/26 04:44:58;;;;;;;;;;;13.70;99.90;;;;;;5032505;28;19974;-77
2022/10/26 04:47:24;;;;;;;;;;;13.60;99.90;;;;;;5033025;28;19913;-76
2022/10/26 04:49:50;;;;;;;;;;;13.50;99.90;;;;;;5015285;28;20359;-77
2022/10/26 04:52:15;;;;;;;;;;;13.60;99.90;;;;;;5014930;28;19916;-77
2022/10/26 04:54:41;;;;;;;;;;;13.50;99.90;;;;;;5015359;28;19913;-77
2022/10/26 04:57:06;;;;;;;;;;;13.60;99.90;;;;;;5032327;28;19909;-77
2022/10/26 04:59:32;;;;;;;;;;;13.60;99.90;;;;;;5032844;28;19913;-77
2022/10/26 05:01:57;;;;;;;;;;;13.70;99.90;;;;;;5032318;28;20362;-77
2022/10/26 05:04:23;;;;;;;;;;;13.80;99.90;;;;;;5032961;28;19989;-76
2022/10/26 05:06:50;;;;;;;;;;;13.80;99.90;;;;;;5032934;28;19913;-76
2022/10/26 05:09:16;;;;;;;;;;;13.70;99.90;;;;;;5014753;28;19909;-77
2022/10/26 05:11:41;;;;;;;;;;;13.70;99.90;;;;;;5032713;28;19920;-77
2022/10/26 05:14:08;;;;;;;;;;;13.60;99.90;;;;;;5032429;28;19909;-77
2022/10/26 05:16:34;;;;;;;;;;;13.60;99.90;;;;;;5032569;28;19909;-77
2022/10/26 05:18:59;;;;;;;;;;;13.60;99.90;;;;;;5032242;28;20322;-77
2022/10/26 05:21:25;;;;;;;;;;;13.60;99.90;;;;;;5032423;28;19952;-77
2022/10/26 05:23:52;;;;;;;;;;;13.60;99.90;;;;;;5032577;28;19966;-76
2022/10/26 05:26:18;;;;;;;;;;;13.50;99.90;;;;;;5032167;28;19913;-76
2022/10/26 05:28:44;;;;;;;;;;;13.50;99.90;;;;;;5032658;28;20282;-77
2022/10/26 05:31:09;;;;;;;;;;;13.50;99.90;;;;;;5032135;28;19921;-77
2022/10/26 05:33:35;;;;;;;;;;;13.50;99.90;;;;;;5032723;28;20417;-76
2022/10/26 05:36:00;;;;;;;;;;;13.40;99.90;;;;;;5032169;28;19909;-77
2022/10/26 05:38:26;;;;;;;;;;;13.40;99.90;;;;;;5014751;28;19960;-77
2022/10/26 05:40:53;;;;;;;;;;;13.40;99.90;;;;;;5035805;28;19959;-77
2022/10/26 05:43:19;;;;;;;;;;;13.40;99.90;;;;;;5035231;28;19905;-77
2022/10/26 05:45:45;;;;;;;;;;;13.40;99.90;;;;;;5036298;28;20305;-77
2022/10/26 05:48:10;;;;;;;;;;;13.40;99.90;;;;;;5017513;28;19918;-77
2022/10/26 05:50:36;;;;;;;;;;;13.40;99.90;;;;;;5036456;28;19963;-75
2022/10/26 05:53:01;;;;;;;;;;;13.50;99.90;;;;;;5035751;28;19913;-76
2022/10/26 05:55:27;;;;;;;;;;;13.40;99.90;;;;;;5036231;28;19909;-76
2022/10/26 05:57:53;;;;;;;;;;;13.50;99.90;;;;;;5018448;28;19999;-76
2022/10/26 06:00:20;;;;;;;;;;;13.50;99.90;;;;;;5035123;28;20537;-76
2022/10/26 06:03:04;;;;;;;;;;;13.40;99.90;;;;;;5035711;28;19913;-76
2022/10/26 06:05:32;;;;;;;;;;;13.40;99.90;;;;;;5035895;28;19983;-76
2022/10/26 06:07:58;;;;;;;;;;;13.40;99.90;;;;;;5018299;28;19913;-76
2022/10/26 06:10:23;;;;;;;;;;;13.40;99.90;;;;;;5034140;28;20314;-76
2022/10/26 06:12:49;;;;;;;;;;;13.40;99.90;;;;;;5035685;28;19979;-76
2022/10/26 06:15:17;;;;;;;;;;;13.30;99.90;;;;;;5035627;28;19985;-76
2022/10/26 06:18:01;;;;;;;;;;;13.40;99.90;;;;;;5035810;28;19932;-77
2022/10/26 06:20:49;;;;;;;;;;;13.40;99.90;;;;;;5035537;28;20383;-77
2022/10/26 06:23:35;;;;;;;;;;;13.40;99.90;;;;;;5035136;28;19910;-76
2022/10/26 06:26:07;;;;;;;;;;;13.40;99.90;;;;;;5035131;28;19913;-76
2022/10/26 06:28:46;;;;;;;;;;;13.50;99.90;;;;;;5035532;28;19913;-77
2022/10/26 06:31:12;;;;;;;;;;;13.40;99.90;;;;;;5034363;28;20371;-77
2022/10/26 06:33:38;;;;;;;;;;;13.50;99.90;;;;;;5001417;28;19909;-76
2022/10/26 06:36:23;;;;;;;;;;;13.50;99.90;;;;;;5034855;28;20001;-77
2022/10/26 06:38:51;;;;;;;;;;;13.50;99.90;;;;;;5035575;28;19909;-76
2022/10/26 06:41:18;;;;;;;;;;;13.50;99.90;;;;;;5034197;28;20377;-76
2022/10/26 06:43:43;;;;;;;;;;;13.60;99.90;;;;;;5017611;28;19962;-76
2022/10/26 06:46:12;;;;;;;;;;;13.60;99.90;;;;;;5034556;28;20000;-77
2022/10/26 06:48:58;;;;;;;;;;;13.60;99.90;;;;;;5034135;28;19989;-77
2022/10/26 06:51:24;;;;;;;;;;;13.60;99.90;;;;;;4992329;28;19916;-76
2022/10/26 06:53:55;;;;;;;;;;;13.60;99.90;;;;;;5035084;28;20282;-77
2022/10/26 06:56:23;;;;;;;;;;;13.50;99.90;;;;;;5034167;28;19909;-76
2022/10/26 06:58:49;;;;;;;;;;;13.50;99.90;;;;;;5034772;28;19917;-76
2022/10/26 07:01:15;;;;;;;;;;;13.60;99.90;;;;;;5034262;28;19909;-77
2022/10/26 07:03:41;;;;;;;;;;;13.50;99.90;;;;;;5034968;28;19932;-76
2022/10/26 07:06:07;;;;;;;;;;;13.50;99.90;;;;;;5033943;28;20002;-77
2022/10/26 07:08:33;;;;;;;;;;;13.50;99.90;;;;;;5034574;28;20382;-77
2022/10/26 07:10:59;;;;;;;;;;;13.50;99.90;;;;;;5016903;28;19940;-77
2022/10/26 07:13:24;;;;;;;;;;;13.50;99.90;;;;;;5034909;28;19909;-76
2022/10/26 07:15:50;;;;;;;;;;;13.50;99.90;;;;;;5034455;28;19917;-75
2022/10/26 07:18:15;;;;;;;;;;;13.40;99.90;;;;;;5033581;28;19963;-75
2022/10/26 07:20:41;;;;;;;;;;;13.40;99.90;;;;;;5016621;28;19916;-75
2022/10/26 07:23:09;;;;;;;;;;;13.40;99.90;;;;;;5016282;28;19913;-76
2022/10/26 07:25:37;;;;;;;;;;;13.40;99.90;;;;;;5034098;28;19913;-75
2022/10/26 07:28:03;;;;;;;;;;;13.40;99.90;;;;;;5034394;28;19913;-76
2022/10/26 07:30:29;;;;;;;;;;;13.30;99.90;;;;;;5033693;28;20306;-75
2022/10/26 07:33:03;;;;;;;;;;;13.30;99.90;;;;;;5034214;28;19924;-76
2022/10/26 07:35:28;;;;;;;;;;;13.30;99.90;;;;;;5033569;28;19915;-75
2022/10/26 07:37:57;;;;;;;;;;;13.30;99.90;;;;;;5034374;28;19996;-75
2022/10/26 07:40:23;;;;;;;;;;;13.20;99.90;;;;;;5033119;28;20274;-76
2022/10/26 07:42:49;;;;;;;;;;;13.20;99.90;;;;;;5033720;28;19993;-76
2022/10/26 07:45:15;;;;;;;;;;;13.30;99.90;;;;;;5033751;28;20007;-75
2022/10/26 07:47:40;;;;;;;;;;;13.30;99.90;;;;;;5034147;28;19913;-76
2022/10/26 07:50:07;;;;;;;;;;;13.40;99.90;;;;;;5033778;28;19909;-76
2022/10/26 07:52:34;;;;;;;;;;;13.50;99.90;;;;;;5016262;28;20011;-75
2022/10/26 07:55:00;;;;;;;;;;;13.50;99.90;;;;;;5034062;28;20442;-76
2022/10/26 07:57:25;;;;;;;;;;;13.60;99.90;;;;;;5033434;28;20027;-75
2022/10/26 07:59:51;;;;;;;;;;;13.70;99.90;;;;;;5033561;28;20127;-76
2022/10/26 08:02:17;;;;;;;;;;;13.70;99.90;;;;;;5022000;28;19909;-76
2022/10/26 08:04:42;;;;;;;;;;;13.70;99.90;;;;;;5056566;28;19986;-76
2022/10/26 08:07:08;;;;;;;;;;;13.80;99.90;;;;;;5055105;28;19920;-77
2022/10/26 08:09:33;;;;;;;;;;;13.80;99.90;;;;;;5053322;28;19920;-76
2022/10/26 08:11:59;;;;;;;;;;;13.80;99.90;;;;;;5053500;28;19909;-76
2022/10/26 08:14:24;;;;;;;;;;;13.70;99.90;;;;;;5052806;28;20377;-76
2022/10/26 08:16:51;;;;;;;;;;;13.70;99.90;;;;;;5052213;28;19963;-76
2022/10/26 08:19:17;;;;;;;;;;;13.80;99.90;;;;;;5052430;28;19965;-76
2022/10/26 08:21:42;;;;;;;;;;;13.80;99.90;;;;;;5052117;28;19960;-76
2022/10/26 08:24:08;;;;;;;;;;;13.90;99.90;;;;;;5052755;28;19951;-74
2022/10/26 08:26:34;;;;;;;;;;;14.00;99.90;;;;;;5052702;28;19913;-74
2022/10/26 08:28:59;;;;;;;;;;;14.00;99.90;;;;;;5053320;28;19913;-75
2022/10/26 08:31:25;;;;;;;;;;;14.00;99.90;;;;;;5034367;28;19921;-75
2022/10/26 08:33:50;;;;;;;;;;;14.10;99.90;;;;;;5035096;28;19916;-75
2022/10/26 08:36:20;;;;;;;;;;;14.10;99.90;;;;;;5032066;28;20277;-76
2022/10/26 08:38:48;;;;;;;;;;;14.20;99.90;;;;;;5033018;28;19909;-76
2022/10/26 08:41:14;;;;;;;;;;;14.20;99.90;;;;;;5032311;28;19932;-76
2022/10/26 08:43:46;;;;;;;;;;;14.20;99.90;;;;;;5032350;28;19913;-76
2022/10/26 08:46:16;;;;;;;;;;;14.20;99.90;;;;;;5032410;28;19913;-76
2022/10/26 08:48:44;;;;;;;;;;;14.20;99.90;;;;;;5032516;28;19925;-75
2022/10/26 08:51:21;;;;;;;;;;;14.20;99.90;;;;;;5032009;28;19913;-76
2022/10/26 08:53:47;;;;;;;;;;;14.20;99.90;;;;;;5014028;28;20385;-76
2022/10/26 08:56:18;;;;;;;;;;;14.20;99.90;;;;;;5031887;28;20003;-76
2022/10/26 08:58:50;;;;;;;;;;;14.20;99.90;;;;;;5032392;28;19992;-75
2022/10/26 09:01:16;;;;;;;;;;;14.20;99.90;;;;;;5031728;28;19909;-76
2022/10/26 09:03:41;;;;;;;;;;;14.20;99.90;;;;;;5032792;28;19920;-75
2022/10/26 09:06:18;;;;;;;;;;;14.20;99.90;;;;;;5032500;28;20274;-76
2022/10/26 09:08:55;;;;;;;;;;;14.30;99.90;;;;;;5033134;28;19913;-76
2022/10/26 09:11:30;;;;;;;;;;;14.30;99.90;;;;;;5031995;28;19909;-75
2022/10/26 09:14:15;;;;;;;;;;;14.30;99.90;;;;;;5033881;28;19909;-75
2022/10/26 09:16:40;;;;;;;;;;;14.30;99.90;;;;;;5049756;28;19913;-75
2022/10/26 09:19:24;;;;;;;;;;;14.30;99.90;;;;;;5058813;28;19909;-76
2022/10/26 09:21:50;;;;;;;;;;;14.30;99.90;;;;;;5059213;28;20342;-75
2022/10/26 09:24:26;;;;;;;;;;;14.30;99.90;;;;;;5057073;28;19909;-75
2022/10/26 09:27:10;;;;;;;;;;;14.30;99.90;;;;;;5058696;28;19920;-75
2022/10/26 09:29:38;;;;;;;;;;;14.30;99.90;;;;;;5058207;28;20015;-76
2022/10/26 09:32:05;;;;;;;;;;;14.30;99.90;;;;;;5058245;28;20012;-76
2022/10/26 09:34:36;;;;;;;;;;;14.30;99.90;;;;;;5058177;28;20346;-76
2022/10/26 09:37:10;;;;;;;;;;;14.30;99.90;;;;;;5058902;28;19913;-75
2022/10/26 09:39:41;;;;;;;;;;;14.40;99.90;;;;;;5057894;28;19965;-75
2022/10/26 09:42:20;;;;;;;;;;;14.40;99.90;;;;;;5057783;28;19909;-74
2022/10/26 09:45:08;;;;;;;;;;;14.40;99.90;;;;;;5058476;28;20404;-74
2022/10/26 09:47:35;;;;;;;;;;;14.40;99.90;;;;;;5040397;28;19913;-76
2022/10/26 09:50:06;;;;;;;;;;;14.50;99.90;;;;;;5058756;28;20435;-75
2022/10/26 09:52:32;;;;;;;;;;;14.50;99.90;;;;;;5058230;28;20025;-75
2022/10/26 09:54:57;;;;;;;;;;;14.50;99.90;;;;;;5053063;28;19951;-76
2022/10/26 09:57:23;;;;;;;;;;;14.40;99.90;;;;;;5038639;28;19909;-76
2022/10/26 09:59:51;;;;;;;;;;;14.40;99.90;;;;;;5020808;28;19909;-76
2022/10/26 10:02:32;;;;;;;;;;;14.50;99.90;;;;;;5037629;28;20006;-76
2022/10/26 10:04:58;;;;;;;;;;;14.50;99.90;;;;;;5036876;28;19916;-75
2022/10/26 10:07:24;;;;;;;;;;;14.50;99.90;;;;;;5037824;28;19920;-76
2022/10/26 10:10:28;;;;;;;;;;;14.50;99.90;;;;;;5038569;28;19913;-75
2022/10/26 10:12:54;;;;;;;;;;;14.60;99.90;;;;;;4957959;28;19911;-76
2022/10/26 10:15:23;;;;;;;;;;;14.60;99.90;;;;;;4957339;29;19917;-77
2022/10/26 10:17:50;;;;;;;;;;;14.60;99.90;;;;;;4957841;29;19934;-76
2022/10/26 10:20:17;;;;;;;;;;;14.60;99.90;;;;;;4957485;29;19910;-78
2022/10/26 10:22:53;;;;;;;;;;;14.60;99.90;;;;;;4957965;29;19969;-75
2022/10/26 10:25:24;;;;;;;;;;;14.60;99.90;;;;;;4956453;28;20005;-75
2022/10/26 10:27:53;;;;;;;;;;;14.60;99.90;;;;;;4954560;29;19914;-75
2022/10/26 10:30:22;;;;;;;;;;;14.70;99.90;;;;;;4954113;29;19910;-77
2022/10/26 10:33:05;;;;;;;;;;;14.70;99.90;;;;;;4954931;29;19930;-74
2022/10/26 10:35:31;;;;;;;;;;;14.80;99.90;;;;;;4953049;29;19926;-76
2022/10/26 10:37:56;;;;;;;;;;;14.70;99.90;;;;;;4954164;29;20017;-75
2022/10/26 10:40:24;;;;;;;;;;;14.80;99.90;;;;;;4953633;29;19954;-76
2022/10/26 10:42:50;;;;;;;;;;;14.80;99.90;;;;;;4967989;28;19909;-76
2022/10/26 10:45:20;;;;;;;;;;;14.90;99.90;;;;;;5034685;28;19994;-76
2022/10/26 10:48:00;;;;;;;;;;;14.90;99.90;;;;;;5034456;28;19921;-75
2022/10/26 10:50:26;;;;;;;;;;;14.90;99.90;;;;;;5034101;28;19972;-76
2022/10/26 10:52:51;;;;;;;;;;;15.00;99.90;;;;;;5034876;28;20317;-76
2022/10/26 10:55:19;;;;;;;;;;;15.10;99.90;;;;;;5017012;28;19909;-77
2022/10/26 10:57:44;;;;;;;;;;;15.10;99.90;;;;;;5034658;28;19909;-75
2022/10/26 11:00:11;;;;;;;;;;;15.20;99.90;;;;;;5034766;28;20314;-76
2022/10/26 11:02:55;;;;;;;;;;;15.20;99.90;;;;;;5033642;28;19948;-76
2022/10/26 11:05:23;;;;;;;;;;;15.20;99.90;;;;;;5033284;28;19913;-77
2022/10/26 11:07:55;;;;;;;;;;;15.20;99.90;;;;;;5034235;28;19913;-79
2022/10/26 11:10:23;;;;;;;;;;;15.30;99.90;;;;;;5033180;28;20036;-77
2022/10/26 11:12:52;;;;;;;;;;;15.40;99.90;;;;;;5034046;28;19909;-76
2022/10/26 11:15:20;;;;;;;;;;;15.50;99.90;;;;;;5033840;28;19924;-76
2022/10/26 11:17:48;;;;;;;;;;;15.60;99.90;;;;;;5034093;28;19995;-74
2022/10/26 11:20:19;;;;;;;;;;;15.70;99.90;;;;;;5033302;28;19913;-75
2022/10/26 11:22:51;;;;;;;;;;;15.70;99.90;;;;;;5033973;28;19955;-75
2022/10/26 11:25:21;;;;;;;;;;;15.70;99.90;;;;;;5034562;28;20007;-75
2022/10/26 11:27:52;;;;;;;;;;;15.60;99.90;;;;;;5034262;28;19953;-76
2022/10/26 11:30:24;;;;;;;;;;;15.50;99.90;;;;;;5034260;28;20327;-76
2022/10/26 11:32:49;;;;;;;;;;;15.30;99.90;;;;;;5016678;28;19975;-77
2022/10/26 11:35:25;;;;;;;;;;;15.00;99.90;;;;;;5033155;28;20351;-75
2022/10/26 11:37:54;;;;;;;;;;;14.90;99.90;;;;;;5034129;28;19983;-76
2022/10/26 11:40:26;;;;;;;;;;;14.70;99.90;;;;;;5037849;28;19909;-78
2022/10/26 11:43:09;;;;;;;;;;;14.50;99.90;;;;;;5034159;28;20004;-75
2022/10/26 11:45:37;;;;;;;;;;;14.50;99.90;;;;;;5032994;28;20008;-77
2022/10/26 11:48:10;;;;;;;;;;;14.40;99.90;;;;;;5033760;28;20414;-75
2022/10/26 11:50:39;;;;;;;;;;;14.30;99.90;;;;;;5033269;28;20436;-76
2022/10/26 11:53:09;;;;;;;;;;;14.30;99.90;;;;;;5033967;28;20251;-75
2022/10/26 11:55:35;;;;;;;;;;;14.30;99.90;;;;;;5015228;28;19909;-75
2022/10/26 11:58:02;;;;;;;;;;;14.40;99.90;;;;;;5033778;28;19935;-75
2022/10/26 12:00:28;;;;;;;;;;;14.40;99.90;;;;;;5033068;28;19909;-75
2022/10/26 12:02:54;;;;;;;;;;;14.40;99.90;;;;;;5032930;28;19916;-76
2022/10/26 12:05:22;;;;;;;;;;;14.50;99.90;;;;;;5033018;28;19909;-78
2022/10/26 12:07:52;;;;;;;;;;;14.50;99.90;;;;;;5033299;28;19913;-75
2022/10/26 12:10:36;;;;;;;;;;;14.60;99.90;;;;;;5033173;28;20003;-76
2022/10/26 12:13:21;;;;;;;;;;;14.70;99.90;;;;;;5033794;28;19996;-76
2022/10/26 12:15:51;;;;;;;;;;;14.70;99.90;;;;;;5032801;28;19909;-76
2022/10/26 12:18:17;;;;;;;;;;;14.80;99.90;;;;;;5015626;28;19916;-76
2022/10/26 12:20:51;;;;;;;;;;;14.80;99.90;;;;;;5031468;28;19913;-76
2022/10/26 12:23:17;;;;;;;;;;;14.80;99.90;;;;;;5032988;28;20337;-76
2022/10/26 12:25:42;;;;;;;;;;;14.90;99.90;;;;;;5032213;28;19963;-76
2022/10/26 12:28:46;;;;;;;;;;;15.00;99.90;;;;;;5033701;28;19913;-76
2022/10/26 12:31:30;;;;;;;;;;;15.00;99.90;;;;;;4951964;29;19923;-76
2022/10/26 12:33:56;;;;;;;;;;;15.10;99.90;;;;;;4952770;29;19914;-76
2022/10/26 12:36:40;;;;;;;;;;;15.10;99.90;;;;;;4951867;29;19921;-76
2022/10/26 12:39:24;;;;;;;;;;;15.30;99.90;;;;;;4952344;29;19914;-76
2022/10/26 12:41:57;;;;;;;;;;;15.30;99.90;;;;;;4951236;29;19914;-76
2022/10/26 12:44:36;;;;;;;;;;;15.30;99.90;;;;;;4952012;29;19977;-77
2022/10/26 12:47:03;;;;;;;;;;;15.40;99.90;;;;;;4952116;29;19918;-76
2022/10/26 12:49:47;;;;;;;;;;;15.50;99.90;;;;;;4951155;28;20331;-76
2022/10/26 12:52:20;;;;;;;;;;;15.50;99.90;;;;;;4951752;29;19910;-75
2022/10/26 12:55:14;;;;;;;;;;;15.50;99.90;;;;;;4951346;29;19954;-76
2022/10/26 12:57:46;;;;;;;;;;;15.50;99.90;;;;;;4947211;29;20684;-76
2022/10/26 13:00:13;;;;;;;;;;;15.60;99.90;;;;;;4951551;29;19911;-75
2022/10/26 13:02:48;;;;;;;;;;;15.70;99.90;;;;;;4997558;28;19910;-76
2022/10/26 13:05:22;;;;;;;;;;;15.70;99.90;;;;;;5032442;28;20420;-75
2022/10/26 13:07:48;;;;;;;;;;;15.70;99.90;;;;;;5032234;28;19940;-75
2022/10/26 13:10:14;;;;;;;;;;;15.70;99.90;;;;;;5014921;28;19932;-75
2022/10/26 13:12:47;;;;;;;;;;;15.70;99.90;;;;;;5032072;28;20354;-75
2022/10/26 13:15:24;;;;;;;;;;;15.70;99.90;;;;;;5032217;28;20390;-76
2022/10/26 13:17:54;;;;;;;;;;;15.70;99.90;;;;;;5032294;28;19909;-76
2022/10/26 13:20:20;;;;;;;;;;;15.80;99.90;;;;;;5032339;28;19916;-76
2022/10/26 13:22:46;;;;;;;;;;;15.90;99.90;;;;;;5014360;28;19909;-76
2022/10/26 13:25:38;;;;;;;;;;;15.90;99.90;;;;;;5031956;28;19916;-75
2022/10/26 13:28:03;;;;;;;;;;;16.00;99.90;;;;;;5028505;28;20003;-76
2022/10/26 13:30:32;;;;;;;;;;;16.10;99.90;;;;;;5031789;28;20040;-77
2022/10/26 13:32:58;;;;;;;;;;;16.20;99.90;;;;;;5031952;28;20418;-76
2022/10/26 13:35:25;;;;;;;;;;;16.20;99.90;;;;;;5031926;28;19910;-76
2022/10/26 13:37:52;;;;;;;;;;;16.20;99.90;;;;;;5032304;28;20059;-75
2022/10/26 13:40:19;;;;;;;;;;;16.20;99.90;;;;;;5032275;28;19955;-75
2022/10/26 13:42:46;;;;;;;;;;;16.10;99.90;;;;;;5031536;28;19924;-75
2022/10/26 13:45:14;;;;;;;;;;;16.10;99.90;;;;;;5032362;28;19920;-75
2022/10/26 13:47:43;;;;;;;;;;;16.00;99.90;;;;;;5031359;28;19921;-75
2022/10/26 13:50:13;;;;;;;;;;;15.90;99.90;;;;;;5032287;28;19957;-75
2022/10/26 13:52:41;;;;;;;;;;;15.90;99.90;;;;;;5031522;28;19909;-75
2022/10/26 13:55:27;;;;;;;;;;;15.80;99.90;;;;;;5031954;28;19960;-75
2022/10/26 13:58:01;;;;;;;;;;;15.80;99.90;;;;;;5031088;28;20402;-75
2022/10/26 14:00:27;;;;;;;;;;;15.80;99.90;;;;;;5032582;28;19996;-76
2022/10/26 14:02:53;;;;;;;;;;;15.60;99.90;;;;;;5018314;28;20020;-75
2022/10/26 14:05:19;;;;;;;;;;;15.60;99.90;;;;;;5035679;28;19909;-75
2022/10/26 14:07:47;;;;;;;;;;;15.60;99.90;;;;;;5034840;28;19913;-75
2022/10/26 14:10:39;;;;;;;;;;;15.60;99.90;;;;;;5035681;28;19935;-75
2022/10/26 14:13:09;;;;;;;;;;;15.70;99.90;;;;;;5015011;28;19909;-76
2022/10/26 14:15:35;;;;;;;;;;;15.60;99.90;;;;;;5042100;28;19916;-85
2022/10/26 14:18:02;;;;;;;;;;;15.20;99.90;;;;;;5047241;28;20038;-85
2022/10/26 14:20:29;;;;;;;;;;;14.30;99.90;;;;;;5042458;28;19917;-85
2022/10/26 14:22:54;;;;;;;;;;;13.50;99.90;;;;;;5028804;28;19909;-86
2022/10/26 14:25:25;;;;;;;;;;;13.10;99.90;;;;;;5040559;28;20007;-89
2022/10/26 14:27:50;;;;;;;;;;;12.60;99.90;;;;;;5035746;28;19913;-87